createdAt,value
2019-02-25T00:00:14.087Z,4.03
2019-02-25T00:02:47.203Z,3.23
2019-02-25T00:05:13.519Z,3.50
2019-02-25T00:07:41.907Z,3.30
2019-02-25T00:10:08.468Z,2.73
2019-02-25T00:12:34.737Z,2.70
2019-02-25T00:15:01.165Z,3.13
2019-02-25T00:17:27.531Z,2.53
2019-02-25T00:19:53.772Z,2.80
2019-02-25T00:22:22.557Z,2.70
2019-02-25T00:24:49.196Z,2.50
2019-02-25T00:27:15.551Z,3.10
2019-02-25T00:29:41.682Z,2.70
2019-02-25T00:32:07.857Z,2.93
2019-02-25T00:34:34.082Z,2.93
2019-02-25T00:37:00.340Z,2.87
2019-02-25T00:39:26.695Z,3.23
2019-02-25T00:41:58.191Z,2.90
2019-02-25T00:44:27.293Z,3.00
2019-02-25T00:46:55.648Z,2.77
2019-02-25T00:49:22.024Z,3.50
2019-02-25T00:51:48.444Z,2.87
2019-02-25T00:54:14.906Z,2.80
2019-02-25T00:56:44.366Z,2.70
2019-02-25T00:59:14.908Z,2.40
2019-02-25T01:01:41.328Z,2.80
2019-02-25T01:04:07.542Z,2.97
2019-02-25T01:06:33.985Z,2.77
2019-02-25T01:09:00.340Z,2.97
2019-02-25T01:11:26.578Z,2.70
2019-02-25T01:13:52.766Z,2.67
2019-02-25T01:16:20.664Z,2.40
2019-02-25T01:18:56.666Z,2.57
2019-02-25T01:21:23.702Z,3.17
2019-02-25T01:23:49.930Z,3.33
2019-02-25T01:26:16.214Z,2.90
2019-02-25T01:28:42.826Z,3.20
2019-02-25T01:31:09.013Z,3.17
2019-02-25T01:33:40.694Z,2.93
2019-02-25T01:36:09.608Z,3.03
2019-02-25T01:38:35.837Z,3.57
2019-02-25T01:41:04.201Z,3.30
2019-02-25T01:43:30.371Z,3.20
2019-02-25T01:45:56.650Z,3.20
2019-02-25T01:48:22.893Z,3.03
2019-02-25T01:50:49.116Z,3.23
2019-02-25T01:53:15.566Z,4.30
2019-02-25T01:55:41.793Z,3.30
2019-02-25T01:58:08.137Z,3.30
2019-02-25T02:00:34.447Z,3.50
2019-02-25T02:03:00.616Z,3.33
2019-02-25T02:05:26.821Z,3.43
2019-02-25T02:07:53.195Z,2.73
2019-02-25T02:10:19.582Z,2.97
2019-02-25T02:12:45.951Z,3.30
2019-02-25T02:15:16.843Z,3.43
2019-02-25T02:17:43.074Z,3.20
2019-02-25T02:20:12.024Z,3.47
2019-02-25T02:22:38.169Z,3.50
2019-02-25T02:25:06.348Z,3.10
2019-02-25T02:27:32.660Z,3.33
2019-02-25T02:29:58.958Z,3.43
2019-02-25T02:32:25.430Z,3.53
2019-02-25T02:34:51.801Z,2.83
2019-02-25T02:37:18.037Z,3.17
2019-02-25T02:39:44.305Z,3.20
2019-02-25T02:42:14.524Z,3.10
2019-02-25T02:44:42.717Z,2.70
2019-02-25T02:47:22.198Z,3.50
2019-02-25T02:49:48.421Z,3.93
2019-02-25T02:52:14.608Z,4.03
2019-02-25T02:54:40.853Z,4.13
2019-02-25T02:57:07.224Z,4.00
2019-02-25T02:59:33.460Z,4.17
2019-02-25T03:01:59.706Z,3.50
2019-02-25T03:04:25.928Z,3.53
2019-02-25T03:06:52.065Z,3.53
2019-02-25T03:09:18.319Z,4.03
2019-02-25T03:11:44.537Z,3.50
2019-02-25T03:14:10.710Z,3.23
2019-02-25T03:16:36.936Z,3.30
2019-02-25T03:19:03.163Z,3.50
2019-02-25T03:21:29.512Z,3.43
2019-02-25T03:23:55.795Z,3.63
2019-02-25T03:26:22.034Z,3.20
2019-02-25T03:28:48.257Z,3.67
2019-02-25T03:31:14.467Z,2.90
2019-02-25T03:33:40.686Z,2.70
2019-02-25T03:36:06.985Z,3.60
2019-02-25T03:38:33.229Z,3.60
2019-02-25T03:40:59.579Z,3.57
2019-02-25T03:43:25.863Z,3.30
2019-02-25T03:45:52.115Z,3.03
2019-02-25T03:48:18.637Z,3.23
2019-02-25T03:50:44.924Z,3.40
2019-02-25T03:53:11.284Z,2.90
2019-02-25T03:55:37.635Z,3.10
2019-02-25T03:58:04.007Z,2.80
2019-02-25T04:00:30.340Z,3.23
2019-02-25T04:02:56.686Z,4.57
2019-02-25T04:05:23.042Z,4.50
2019-02-25T04:07:49.466Z,4.07
2019-02-25T04:10:15.923Z,4.67
2019-02-25T04:12:42.273Z,4.70
2019-02-25T04:15:14.567Z,5.43
2019-02-25T04:17:40.822Z,4.90
2019-02-25T04:20:09.991Z,5.20
2019-02-25T04:22:36.212Z,4.37
2019-02-25T04:25:03.334Z,3.80
2019-02-25T04:27:29.558Z,3.47
2019-02-25T04:29:55.711Z,3.40
2019-02-25T04:32:21.896Z,3.53
2019-02-25T04:34:48.108Z,4.10
2019-02-25T04:37:14.343Z,3.80
2019-02-25T04:39:40.692Z,4.00
2019-02-25T04:42:06.945Z,3.30
2019-02-25T04:44:33.269Z,3.20
2019-02-25T04:46:59.665Z,3.90
2019-02-25T04:49:25.881Z,3.10
2019-02-25T04:51:52.436Z,4.10
2019-02-25T04:54:21.441Z,3.80
2019-02-25T04:56:47.636Z,4.40
2019-02-25T04:59:13.884Z,3.30
2019-02-25T05:01:40.112Z,3.73
2019-02-25T05:04:06.286Z,3.47
2019-02-25T05:06:32.642Z,3.53
2019-02-25T05:08:58.903Z,3.70
2019-02-25T05:11:27.037Z,3.90
2019-02-25T05:13:53.294Z,3.23
2019-02-25T05:16:19.417Z,3.77
2019-02-25T05:18:45.666Z,3.30
2019-02-25T05:21:12.050Z,3.40
2019-02-25T05:23:38.614Z,3.23
2019-02-25T05:26:04.853Z,3.60
2019-02-25T05:28:31.176Z,3.30
2019-02-25T05:30:57.497Z,2.90
2019-02-25T05:33:23.721Z,3.30
2019-02-25T05:35:49.955Z,2.80
2019-02-25T05:38:16.087Z,2.90
2019-02-25T05:40:42.325Z,2.90
2019-02-25T05:43:08.612Z,3.67
2019-02-25T05:45:34.832Z,3.10
2019-02-25T05:48:00.954Z,3.23
2019-02-25T05:50:27.210Z,3.03
2019-02-25T05:52:53.575Z,4.33
2019-02-25T05:55:20.058Z,3.80
2019-02-25T05:57:46.333Z,4.47
2019-02-25T06:00:21.789Z,5.33
2019-02-25T06:02:47.998Z,4.70
2019-02-25T06:05:14.440Z,5.00
2019-02-25T06:07:40.789Z,5.13
2019-02-25T06:10:11.350Z,4.60
2019-02-25T06:12:37.583Z,4.20
2019-02-25T06:15:10.448Z,4.20
2019-02-25T06:17:37.714Z,4.20
2019-02-25T06:20:06.924Z,3.70
2019-02-25T06:22:33.268Z,3.80
2019-02-25T06:24:59.544Z,3.50
2019-02-25T06:27:30.651Z,3.93
2019-02-25T06:29:54.067Z,3.73
2019-02-25T06:32:20.327Z,3.70
2019-02-25T06:34:46.533Z,3.60
2019-02-25T06:37:12.743Z,3.10
2019-02-25T06:39:40.021Z,3.60
2019-02-25T06:42:06.408Z,3.40
2019-02-25T06:44:33.671Z,3.67
2019-02-25T06:46:59.845Z,3.60
2019-02-25T06:49:26.107Z,3.70
2019-02-25T06:51:52.236Z,3.90
2019-02-25T06:54:20.722Z,3.13
2019-02-25T06:56:47.066Z,2.90
2019-02-25T06:59:13.216Z,3.07
2019-02-25T07:01:39.774Z,3.57
2019-02-25T07:04:11.202Z,3.60
2019-02-25T07:06:45.395Z,3.23
2019-02-25T07:09:13.545Z,3.93
2019-02-25T07:11:41.742Z,4.07
2019-02-25T07:14:10.076Z,13.30
2019-02-25T07:16:47.637Z,13.63
2019-02-25T07:19:18.487Z,13.00
2019-02-25T07:21:49.531Z,13.20
2019-02-25T07:24:20.812Z,14.83
2019-02-25T07:26:49.112Z,17.10
2019-02-25T07:29:25.068Z,14.57
2019-02-25T07:31:53.329Z,13.53
2019-02-25T07:34:36.469Z,13.30
2019-02-25T07:37:10.741Z,12.03
2019-02-25T07:39:54.283Z,10.80
2019-02-25T07:42:25.179Z,10.07
2019-02-25T07:44:53.367Z,8.90
2019-02-25T07:47:21.518Z,7.07
2019-02-25T07:49:52.938Z,6.10
2019-02-25T07:52:20.983Z,6.00
2019-02-25T07:54:57.847Z,5.37
2019-02-25T07:57:31.974Z,4.50
2019-02-25T08:00:06.127Z,4.73
2019-02-25T08:02:34.203Z,4.13
2019-02-25T08:05:05.303Z,3.97
2019-02-25T08:07:50.401Z,4.23
2019-02-25T08:10:21.518Z,3.90
2019-02-25T08:12:52.423Z,4.00
2019-02-25T08:15:20.649Z,3.30
2019-02-25T08:17:48.812Z,3.63
2019-02-25T08:20:26.138Z,3.50
2019-02-25T08:23:10.805Z,3.67
2019-02-25T08:25:39.050Z,4.60
2019-02-25T08:28:19.069Z,3.17
2019-02-25T08:30:59.060Z,3.20
2019-02-25T08:33:27.327Z,3.00
2019-02-25T08:36:07.555Z,3.43
2019-02-25T08:38:53.622Z,3.13
2019-02-25T08:41:24.817Z,5.03
2019-02-25T08:43:52.853Z,4.63
2019-02-25T08:46:23.826Z,6.10
2019-02-25T08:48:52.038Z,4.80
2019-02-25T08:51:18.383Z,4.87
2019-02-25T08:53:44.639Z,6.03
2019-02-25T08:56:11.224Z,5.00
2019-02-25T08:58:37.683Z,5.03
2019-02-25T09:01:04.196Z,4.37
2019-02-25T09:03:30.788Z,4.40
2019-02-25T09:05:57.470Z,4.73
2019-02-25T09:08:23.746Z,6.67
2019-02-25T09:10:50.030Z,4.30
2019-02-25T09:13:16.370Z,6.40
2019-02-25T09:15:42.706Z,6.50
2019-02-25T09:18:09.040Z,5.13
2019-02-25T09:20:35.261Z,4.93
2019-02-25T09:23:01.527Z,4.37
2019-02-25T09:25:28.185Z,3.93
2019-02-25T09:27:54.488Z,4.17
2019-02-25T09:30:20.939Z,4.83
2019-02-25T09:32:47.193Z,4.63
2019-02-25T09:35:13.831Z,5.78
2019-02-25T09:37:40.091Z,3.40
2019-02-25T09:40:09.456Z,4.37
2019-02-25T09:42:35.725Z,3.65
2019-02-25T09:45:03.671Z,5.10
2019-02-25T09:47:30.001Z,5.65
2019-02-25T09:49:56.243Z,3.37
2019-02-25T09:52:22.780Z,7.12
2019-02-25T09:54:49.015Z,4.62
2019-02-25T09:57:15.246Z,4.53
2019-02-25T09:59:41.529Z,2.87
2019-02-25T10:02:07.847Z,2.75
2019-02-25T10:04:33.999Z,4.05
2019-02-25T10:07:02.470Z,2.77
2019-02-25T10:09:30.022Z,3.37
2019-02-25T10:11:56.561Z,4.78
2019-02-25T10:14:22.968Z,3.58
2019-02-25T10:16:49.225Z,3.80
2019-02-25T10:19:15.617Z,5.17
2019-02-25T10:21:41.891Z,4.58
2019-02-25T10:24:08.127Z,4.05
2019-02-25T10:26:34.272Z,2.52
2019-02-25T10:29:00.441Z,3.90
2019-02-25T10:31:26.688Z,3.30
2019-02-25T10:33:53.164Z,3.90
2019-02-25T10:36:19.603Z,3.00
2019-02-25T10:38:45.862Z,4.53
2019-02-25T10:41:12.094Z,2.50
2019-02-25T10:43:38.544Z,2.27
2019-02-25T10:46:06.796Z,4.85
2019-02-25T10:48:32.932Z,3.87
2019-02-25T10:50:59.231Z,4.60
2019-02-25T10:53:25.452Z,3.75
2019-02-25T10:55:55.430Z,5.22
2019-02-25T10:58:21.654Z,3.80
2019-02-25T11:00:48.119Z,7.20
2019-02-25T11:03:15.273Z,7.50
2019-02-25T11:05:42.732Z,5.00
2019-02-25T11:08:12.053Z,7.90
2019-02-25T11:10:44.145Z,6.87
2019-02-25T11:13:11.900Z,5.90
2019-02-25T11:15:40.207Z,4.25
2019-02-25T11:18:06.542Z,6.47
2019-02-25T11:20:33.390Z,6.60
2019-02-25T11:23:00.279Z,6.78
2019-02-25T11:25:28.503Z,4.50
2019-02-25T11:27:54.784Z,6.30
2019-02-25T11:30:22.200Z,4.47
2019-02-25T11:32:51.118Z,5.97
2019-02-25T11:35:17.608Z,8.23
2019-02-25T11:37:43.948Z,5.22
2019-02-25T11:40:12.912Z,7.28
2019-02-25T11:42:39.290Z,4.37
2019-02-25T11:45:08.847Z,4.87
2019-02-25T11:47:35.293Z,4.55
2019-02-25T11:50:02.847Z,7.37
2019-02-25T11:52:29.380Z,3.95
2019-02-25T11:54:55.623Z,6.67
2019-02-25T11:57:21.994Z,5.65
2019-02-25T11:59:48.229Z,5.72
2019-02-25T12:02:14.666Z,6.87
2019-02-25T12:04:41.025Z,5.22
2019-02-25T12:07:07.312Z,5.80
2019-02-25T12:09:33.590Z,5.25
2019-02-25T12:12:00.041Z,8.73
2019-02-25T12:14:26.260Z,4.65
2019-02-25T12:16:52.549Z,5.58
2019-02-25T12:19:18.753Z,5.72
2019-02-25T12:21:45.220Z,5.15
2019-02-25T12:24:11.452Z,5.37
2019-02-25T12:26:37.688Z,6.05
2019-02-25T12:29:10.634Z,4.90
2019-02-25T12:31:32.314Z,4.67
2019-02-25T12:33:58.577Z,5.28
2019-02-25T12:36:24.789Z,9.60
2019-02-25T12:38:51.156Z,9.25
2019-02-25T12:41:17.389Z,6.72
2019-02-25T12:43:43.819Z,7.92
2019-02-25T12:46:09.954Z,5.28
2019-02-25T12:48:36.186Z,5.05
2019-02-25T12:51:02.661Z,5.58
2019-02-25T12:53:28.908Z,4.08
2019-02-25T12:55:55.151Z,7.40
2019-02-25T12:58:21.388Z,6.12
2019-02-25T13:00:47.745Z,5.87
2019-02-25T13:03:14.068Z,5.92
2019-02-25T13:05:40.314Z,6.55
2019-02-25T13:08:06.727Z,8.25
2019-02-25T13:10:33.334Z,6.78
2019-02-25T13:12:59.649Z,4.90
2019-02-25T13:15:26.129Z,5.50
2019-02-25T13:17:52.486Z,7.08
2019-02-25T13:20:19.136Z,3.75
2019-02-25T13:22:48.210Z,5.97
2019-02-25T13:25:24.469Z,3.37
2019-02-25T13:27:52.016Z,3.87
2019-02-25T13:30:19.134Z,5.12
2019-02-25T13:32:45.364Z,4.22
2019-02-25T13:35:15.389Z,6.62
2019-02-25T13:37:41.915Z,4.90
2019-02-25T13:40:12.061Z,5.83
2019-02-25T13:42:38.560Z,6.05
2019-02-25T13:45:08.412Z,4.78
2019-02-25T13:47:35.077Z,4.28
2019-02-25T13:50:01.535Z,5.20
2019-02-25T13:52:28.010Z,3.10
2019-02-25T13:54:54.503Z,6.92
2019-02-25T13:57:21.513Z,5.30
2019-02-25T13:59:49.039Z,3.58
2019-02-25T14:02:15.324Z,4.20
2019-02-25T14:04:41.752Z,6.55
2019-02-25T14:07:09.087Z,3.45
2019-02-25T14:09:37.029Z,3.92
2019-02-25T14:12:03.650Z,4.22
2019-02-25T14:14:32.523Z,5.53
2019-02-25T14:16:58.728Z,5.03
2019-02-25T14:19:25.093Z,6.53
2019-02-25T14:21:51.358Z,5.47
2019-02-25T14:24:18.506Z,6.70
2019-02-25T14:26:45.958Z,5.15
2019-02-25T14:29:12.340Z,3.62
2019-02-25T14:31:38.781Z,4.03
2019-02-25T14:34:05.404Z,2.95
2019-02-25T14:36:31.961Z,5.42
2019-02-25T14:38:59.400Z,4.25
2019-02-25T14:41:26.731Z,5.12
2019-02-25T14:43:54.250Z,4.40
2019-02-25T14:46:24.539Z,5.00
2019-02-25T14:48:50.502Z,4.97
2019-02-25T14:51:19.062Z,3.92
2019-02-25T14:53:47.439Z,3.33
2019-02-25T14:56:14.051Z,2.95
2019-02-25T14:58:41.137Z,4.00
2019-02-25T15:01:09.123Z,2.90
2019-02-25T15:03:35.839Z,4.75
2019-02-25T15:06:02.422Z,2.90
2019-02-25T15:08:30.654Z,3.25
2019-02-25T15:11:00.054Z,4.62
2019-02-25T15:13:27.907Z,4.65
2019-02-25T15:15:55.863Z,3.65
2019-02-25T15:18:24.530Z,3.87
2019-02-25T15:20:50.755Z,2.27
2019-02-25T15:23:18.817Z,3.25
2019-02-25T15:25:47.036Z,2.25
2019-02-25T15:28:14.148Z,4.35
2019-02-25T15:30:41.765Z,2.85
2019-02-25T15:33:11.398Z,4.95
2019-02-25T15:35:39.348Z,3.62
2019-02-25T15:38:07.883Z,1.90
2019-02-25T15:40:36.257Z,3.72
2019-02-25T15:43:20.675Z,1.92
2019-02-25T15:45:46.777Z,1.87
2019-02-25T15:48:20.625Z,1.92
2019-02-25T15:50:52.553Z,2.25
2019-02-25T15:53:19.376Z,2.90
2019-02-25T15:55:45.900Z,1.98
2019-02-25T15:58:16.000Z,1.40
2019-02-25T16:00:45.244Z,2.67
2019-02-25T16:03:13.743Z,1.37
2019-02-25T16:05:40.291Z,2.27
2019-02-25T16:08:09.280Z,1.40
2019-02-25T16:10:35.604Z,1.75
2019-02-25T16:13:04.102Z,1.95
2019-02-25T16:15:35.345Z,2.00
2019-02-25T16:18:02.567Z,1.80
2019-02-25T16:20:32.111Z,2.20
2019-02-25T16:23:00.184Z,2.37
2019-02-25T16:25:27.567Z,1.93
2019-02-25T16:27:54.325Z,3.33
2019-02-25T16:30:23.477Z,2.65
2019-02-25T16:32:51.439Z,2.70
2019-02-25T16:35:21.040Z,2.80
2019-02-25T16:37:48.608Z,3.65
2019-02-25T16:40:19.605Z,2.30
2019-02-25T16:42:46.535Z,2.62
2019-02-25T16:45:21.133Z,2.52
2019-02-25T16:47:47.569Z,3.90
2019-02-25T16:50:15.983Z,5.85
2019-02-25T16:52:45.532Z,8.95
2019-02-25T16:55:15.533Z,8.83
2019-02-25T16:57:43.477Z,7.35
2019-02-25T17:00:25.078Z,6.33
2019-02-25T17:02:50.608Z,5.37
2019-02-25T17:05:17.083Z,5.15
2019-02-25T17:07:44.366Z,4.30
2019-02-25T17:10:15.096Z,3.60
2019-02-25T17:12:41.413Z,3.02
2019-02-25T17:15:10.545Z,2.98
2019-02-25T17:17:38.388Z,2.80
2019-02-25T17:20:12.313Z,2.25
2019-02-25T17:22:37.793Z,2.27
2019-02-25T17:25:09.379Z,2.45
2019-02-25T17:27:34.774Z,2.42
2019-02-25T17:30:00.982Z,2.02
2019-02-25T17:32:27.345Z,1.82
2019-02-25T17:34:53.626Z,1.80
2019-02-25T17:37:19.876Z,1.45
2019-02-25T17:39:46.314Z,1.60
2019-02-25T17:42:12.639Z,1.77
2019-02-25T17:44:39.202Z,1.77
2019-02-25T17:47:06.657Z,1.77
2019-02-25T17:49:35.727Z,2.10
2019-02-25T17:52:02.158Z,5.03
2019-02-25T17:54:29.470Z,5.22
2019-02-25T17:56:56.590Z,5.77
2019-02-25T17:59:23.544Z,5.17
2019-02-25T18:01:51.285Z,5.00
2019-02-25T18:04:17.821Z,4.47
2019-02-25T18:06:44.352Z,4.57
2019-02-25T18:09:11.193Z,4.50
2019-02-25T18:11:39.076Z,4.10
2019-02-25T18:14:06.089Z,3.70
2019-02-25T18:16:33.256Z,3.30
2019-02-25T18:19:00.359Z,3.03
2019-02-25T18:21:28.890Z,3.50
2019-02-25T18:23:54.865Z,3.00
2019-02-25T18:26:21.870Z,3.60
2019-02-25T18:28:52.660Z,4.07
2019-02-25T18:31:19.799Z,3.17
2019-02-25T18:33:52.851Z,3.80
2019-02-25T18:36:19.747Z,3.63
2019-02-25T18:38:48.588Z,3.93
2019-02-25T18:41:20.998Z,3.47
2019-02-25T18:43:48.905Z,3.23
2019-02-25T18:46:15.300Z,3.43
2019-02-25T18:48:42.811Z,3.27
2019-02-25T18:51:16.544Z,3.17
2019-02-25T18:53:44.704Z,3.27
2019-02-25T18:56:11.847Z,2.90
2019-02-25T18:58:42.524Z,2.80
2019-02-25T19:01:11.373Z,3.13
2019-02-25T19:03:38.264Z,2.95
2019-02-25T19:06:09.490Z,3.13
2019-02-25T19:08:45.302Z,2.23
2019-02-25T19:11:13.039Z,2.30
2019-02-25T19:13:45.825Z,2.07
2019-02-25T19:16:13.793Z,2.27
2019-02-25T19:18:41.317Z,2.30
2019-02-25T19:21:09.244Z,1.83
2019-02-25T19:23:37.707Z,2.50
2019-02-25T19:26:04.556Z,2.10
2019-02-25T19:28:30.803Z,2.60
2019-02-25T19:30:57.125Z,3.07
2019-02-25T19:33:23.600Z,2.40
2019-02-25T19:35:54.468Z,2.50
2019-02-25T19:38:21.901Z,2.77
2019-02-25T19:40:51.296Z,2.60
2019-02-25T19:43:16.789Z,2.70
2019-02-25T19:45:48.461Z,2.33
2019-02-25T19:48:14.935Z,2.50
2019-02-25T19:50:50.714Z,2.30
2019-02-25T19:53:11.887Z,2.27
2019-02-25T19:55:43.974Z,2.43
2019-02-25T19:58:09.375Z,3.37
2019-02-25T20:00:35.986Z,3.63
2019-02-25T20:03:06.028Z,3.90
2019-02-25T20:05:30.637Z,3.70
2019-02-25T20:07:56.941Z,4.00
2019-02-25T20:10:26.114Z,4.03
2019-02-25T20:12:53.277Z,3.53
2019-02-25T20:15:25.021Z,3.57
2019-02-25T20:17:52.839Z,3.30
2019-02-25T20:20:19.518Z,3.40
2019-02-25T20:22:46.079Z,3.20
2019-02-25T20:25:16.295Z,3.00
2019-02-25T20:27:42.096Z,2.50
2019-02-25T20:30:15.207Z,3.50
2019-02-25T20:32:42.896Z,3.73
2019-02-25T20:35:13.985Z,3.37
2019-02-25T20:37:40.753Z,3.60
2019-02-25T20:40:10.994Z,3.00
2019-02-25T20:42:37.365Z,3.20
2019-02-25T20:45:22.981Z,2.80
2019-02-25T20:47:57.215Z,3.20
2019-02-25T20:50:23.533Z,2.57
2019-02-25T20:52:49.759Z,2.57
2019-02-25T20:55:15.888Z,2.37
2019-02-25T20:57:42.727Z,2.50
2019-02-25T21:00:15.592Z,2.10
2019-02-25T21:02:43.233Z,1.80
2019-02-25T21:05:11.677Z,2.20
2019-02-25T21:07:48.160Z,1.93
2019-02-25T21:10:18.104Z,2.13
2019-02-25T21:12:46.174Z,2.30
2019-02-25T21:15:18.136Z,2.70
2019-02-25T21:17:44.772Z,3.00
2019-02-25T21:20:12.540Z,2.90
2019-02-25T21:22:38.981Z,3.30
2019-02-25T21:25:07.586Z,3.10
2019-02-25T21:27:36.999Z,2.87
2019-02-25T21:30:16.169Z,3.27
2019-02-25T21:33:01.973Z,2.73
2019-02-25T21:35:30.151Z,2.93
2019-02-25T21:37:56.612Z,2.93
2019-02-25T21:40:27.071Z,3.10
2019-02-25T21:42:56.696Z,3.03
2019-02-25T21:45:25.137Z,3.37
2019-02-25T21:47:56.040Z,3.73
2019-02-25T21:50:26.298Z,3.63
2019-02-25T21:52:50.443Z,3.77
2019-02-25T21:55:17.617Z,3.10
2019-02-25T21:57:44.216Z,3.93
2019-02-25T22:00:22.111Z,3.17
2019-02-25T22:02:50.412Z,3.20
2019-02-25T22:05:18.939Z,3.00
2019-02-25T22:07:47.567Z,2.80
2019-02-25T22:10:14.623Z,2.50
2019-02-25T22:12:42.643Z,2.60
2019-02-25T22:15:13.057Z,2.57
2019-02-25T22:17:43.339Z,2.63
2019-02-25T22:20:12.171Z,2.50
2019-02-25T22:22:39.058Z,2.20
2019-02-25T22:25:08.493Z,2.60
2019-02-25T22:27:37.370Z,2.50
2019-02-25T22:30:09.185Z,2.23
2019-02-25T22:32:36.510Z,2.33
2019-02-25T22:35:07.598Z,2.20
2019-02-25T22:37:34.370Z,2.07
2019-02-25T22:40:07.969Z,2.07
2019-02-25T22:42:35.567Z,2.13
2019-02-25T22:45:01.810Z,2.20
2019-02-25T22:47:29.949Z,2.07
2019-02-25T22:49:56.228Z,1.90
2019-02-25T22:52:26.340Z,2.00
2019-02-25T22:54:52.237Z,1.93
2019-02-25T22:57:19.178Z,2.40
2019-02-25T22:59:50.247Z,2.20
2019-02-25T23:02:14.830Z,2.20
2019-02-25T23:04:44.895Z,2.30
2019-02-25T23:07:11.077Z,2.10
2019-02-25T23:09:39.105Z,2.33
2019-02-25T23:12:05.506Z,2.23
2019-02-25T23:14:32.330Z,2.17
2019-02-25T23:17:02.463Z,2.60
2019-02-25T23:19:27.786Z,2.80
2019-02-25T23:21:53.956Z,2.63
2019-02-25T23:24:25.986Z,2.40
2019-02-25T23:26:52.892Z,2.70
2019-02-25T23:29:19.686Z,2.70
2019-02-25T23:31:49.184Z,2.73
2019-02-25T23:34:17.533Z,3.10
2019-02-25T23:36:45.013Z,3.30
2019-02-25T23:39:17.084Z,2.67
2019-02-25T23:41:43.580Z,3.00
2019-02-25T23:44:12.629Z,2.93
2019-02-25T23:46:40.583Z,3.00
2019-02-25T23:49:06.795Z,2.80
2019-02-25T23:51:32.905Z,3.87
2019-02-25T23:53:59.137Z,3.73
2019-02-25T23:56:27.290Z,3.37
2019-02-25T23:58:53.960Z,3.73
